Terminal Aerodrome Forecast
Issued by NWS

Current Version | Previous Version | Text Only | Print | Product List | Glossary On
Versions: 1 2 3 4 5 6 7 8 9 10 11 12
000
FTUS42 TJSJ 040542
TAFKPK
TAF
TKPK 040542Z 0406/0506 08010KT P6SM FEW020
     FM041300 08012KT P6SM SCT018
     FM042300 09008KT P6SM SCT020
      AMD NOT SKED 0406/0411=

USA.gov is the U.S. government's official web portal to all federal, state and local government web resources and services.